sensor_id;sensor_type;location;lat;lon;timestamp;temperature;humidity
53294;DHT22;39181;53.440;5.644;2022-11-12T00:02:20;9.90;99.90
53294;DHT22;39181;53.440;5.644;2022-11-12T00:04:47;10.00;99.90
53294;DHT22;39181;53.440;5.644;2022-11-12T00:07:13;10.00;99.90
53294;DHT22;39181;53.440;5.644;2022-11-12T00:09:39;10.20;99.90
53294;DHT22;39181;53.440;5.644;2022-11-12T00:12:05;10.20;99.90
53294;DHT22;39181;53.440;5.644;2022-11-12T00:14:30;10.30;99.90
53294;DHT22;39181;53.440;5.644;2022-11-12T00:16:56;10.30;99.90
53294;DHT22;39181;53.440;5.644;2022-11-12T00:19:21;10.40;99.90
53294;DHT22;39181;53.440;5.644;2022-11-12T00:21:47;10.40;99.90
53294;DHT22;39181;53.440;5.644;2022-11-12T00:24:12;10.50;99.90
53294;DHT22;39181;53.440;5.644;2022-11-12T00:26:38;10.50;99.90
53294;DHT22;39181;53.440;5.644;2022-11-12T00:29:03;10.50;99.90
53294;DHT22;39181;53.440;5.644;2022-11-12T00:31:29;10.50;99.90
53294;DHT22;39181;53.440;5.644;2022-11-12T00:33:54;10.50;99.90
53294;DHT22;39181;53.440;5.644;2022-11-12T00:36:20;10.40;99.90
53294;DHT22;39181;53.440;5.644;2022-11-12T00:38:46;10.50;99.90
53294;DHT22;39181;53.440;5.644;2022-11-12T00:41:11;10.40;99.90
53294;DHT22;39181;53.440;5.644;2022-11-12T00:43:37;10.40;99.90
53294;DHT22;39181;53.440;5.644;2022-11-12T00:46:02;10.50;99.90
53294;DHT22;39181;53.440;5.644;2022-11-12T00:48:28;10.50;99.90
53294;DHT22;39181;53.440;5.644;2022-11-12T00:51:04;10.50;99.90
53294;DHT22;39181;53.440;5.644;2022-11-12T00:53:31;10.50;99.90
53294;DHT22;39181;53.440;5.644;2022-11-12T00:56:04;10.50;99.90
53294;DHT22;39181;53.440;5.644;2022-11-12T00:58:35;10.50;99.90
53294;DHT22;39181;53.440;5.644;2022-11-12T01:01:09;10.40;99.90
53294;DHT22;39181;53.440;5.644;2022-11-12T01:03:36;10.30;99.90
53294;DHT22;39181;53.440;5.644;2022-11-12T01:06:08;10.30;99.90
53294;DHT22;39181;53.440;5.644;2022-11-12T01:08:35;10.20;99.90
53294;DHT22;39181;53.440;5.644;2022-11-12T01:11:07;10.10;99.90
53294;DHT22;39181;53.440;5.644;2022-11-12T01:13:33;10.10;99.90
53294;DHT22;39181;53.440;5.644;2022-11-12T01:15:58;10.00;99.90
53294;DHT22;39181;53.440;5.644;2022-11-12T01:18:28;10.00;99.90
53294;DHT22;39181;53.440;5.644;2022-11-12T01:20:54;9.90;99.90
53294;DHT22;39181;53.440;5.644;2022-11-12T01:23:19;9.90;99.90
53294;DHT22;39181;53.440;5.644;2022-11-12T01:25:45;9.90;99.90
53294;DHT22;39181;53.440;5.644;2022-11-12T01:28:10;9.90;99.90
53294;DHT22;39181;53.440;5.644;2022-11-12T01:30:36;9.80;99.90
53294;DHT22;39181;53.440;5.644;2022-11-12T01:33:01;9.80;99.90
53294;DHT22;39181;53.440;5.644;2022-11-12T01:35:27;9.70;99.90
53294;DHT22;39181;53.440;5.644;2022-11-12T01:37:52;9.70;99.90
53294;DHT22;39181;53.440;5.644;2022-11-12T01:40:18;9.70;99.90
53294;DHT22;39181;53.440;5.644;2022-11-12T01:42:53;9.70;99.90
53294;DHT22;39181;53.440;5.644;2022-11-12T01:45:19;9.80;99.90
53294;DHT22;39181;53.440;5.644;2022-11-12T01:47:48;9.80;99.90
53294;DHT22;39181;53.440;5.644;2022-11-12T01:50:25;9.80;99.90
53294;DHT22;39181;53.440;5.644;2022-11-12T01:52:56;9.70;99.90
53294;DHT22;39181;53.440;5.644;2022-11-12T01:55:26;9.60;99.90
53294;DHT22;39181;53.440;5.644;2022-11-12T01:57:59;9.60;99.90
53294;DHT22;39181;53.440;5.644;2022-11-12T02:00:27;9.50;99.90
53294;DHT22;39181;53.440;5.644;2022-11-12T02:02:56;9.40;99.90
53294;DHT22;39181;53.440;5.644;2022-11-12T02:05:24;9.30;99.90
53294;DHT22;39181;53.440;5.644;2022-11-12T02:07:50;9.20;99.90
53294;DHT22;39181;53.440;5.644;2022-11-12T02:10:17;9.10;99.90
53294;DHT22;39181;53.440;5.644;2022-11-12T02:12:43;9.00;99.90
53294;DHT22;39181;53.440;5.644;2022-11-12T02:15:27;9.00;99.90
53294;DHT22;39181;53.440;5.644;2022-11-12T02:17:53;8.90;99.90
53294;DHT22;39181;53.440;5.644;2022-11-12T02:20:19;8.80;99.90
53294;DHT22;39181;53.440;5.644;2022-11-12T02:22:44;8.80;99.90
53294;DHT22;39181;53.440;5.644;2022-11-12T02:25:14;8.70;99.90
53294;DHT22;39181;53.440;5.644;2022-11-12T02:27:41;8.60;99.90
53294;DHT22;39181;53.440;5.644;2022-11-12T02:30:07;8.60;99.90
53294;DHT22;39181;53.440;5.644;2022-11-12T02:32:33;8.50;99.90
53294;DHT22;39181;53.440;5.644;2022-11-12T02:34:58;8.50;99.90
53294;DHT22;39181;53.440;5.644;2022-11-12T02:37:24;8.50;99.90
53294;DHT22;39181;53.440;5.644;2022-11-12T02:39:49;8.50;99.90
53294;DHT22;39181;53.440;5.644;2022-11-12T02:42:15;8.40;99.90
53294;DHT22;39181;53.440;5.644;2022-11-12T02:44:41;8.40;99.90
53294;DHT22;39181;53.440;5.644;2022-11-12T02:47:06;8.30;99.90
53294;DHT22;39181;53.440;5.644;2022-11-12T02:49:32;8.30;99.90
53294;DHT22;39181;53.440;5.644;2022-11-12T02:51:57;8.30;99.90
53294;DHT22;39181;53.440;5.644;2022-11-12T02:54:23;8.40;99.90
53294;DHT22;39181;53.440;5.644;2022-11-12T02:56:48;8.40;99.90
53294;DHT22;39181;53.440;5.644;2022-11-12T02:59:14;8.40;99.90
53294;DHT22;39181;53.440;5.644;2022-11-12T03:01:39;8.40;99.90
53294;DHT22;39181;53.440;5.644;2022-11-12T03:04:05;8.40;99.90
53294;DHT22;39181;53.440;5.644;2022-11-12T03:06:30;8.50;99.90
53294;DHT22;39181;53.440;5.644;2022-11-12T03:08:56;8.50;99.90
53294;DHT22;39181;53.440;5.644;2022-11-12T03:11:21;8.60;99.90
53294;DHT22;39181;53.440;5.644;2022-11-12T03:13:47;8.70;99.90
53294;DHT22;39181;53.440;5.644;2022-11-12T03:16:12;8.80;99.90
53294;DHT22;39181;53.440;5.644;2022-11-12T03:18:38;8.90;99.90
53294;DHT22;39181;53.440;5.644;2022-11-12T03:21:04;9.00;99.90
53294;DHT22;39181;53.440;5.644;2022-11-12T03:23:29;9.20;99.90
53294;DHT22;39181;53.440;5.644;2022-11-12T03:25:55;9.30;99.90
53294;DHT22;39181;53.440;5.644;2022-11-12T03:28:21;9.40;99.90
53294;DHT22;39181;53.440;5.644;2022-11-12T03:30:47;9.40;99.90
53294;DHT22;39181;53.440;5.644;2022-11-12T03:33:13;9.50;99.90
53294;DHT22;39181;53.440;5.644;2022-11-12T03:35:40;9.50;99.90
53294;DHT22;39181;53.440;5.644;2022-11-12T03:38:06;9.50;99.90
53294;DHT22;39181;53.440;5.644;2022-11-12T03:40:32;9.50;99.90
53294;DHT22;39181;53.440;5.644;2022-11-12T03:42:58;9.60;99.90
53294;DHT22;39181;53.440;5.644;2022-11-12T03:45:25;9.60;99.90
53294;DHT22;39181;53.440;5.644;2022-11-12T03:47:53;9.60;99.90
53294;DHT22;39181;53.440;5.644;2022-11-12T03:50:20;9.70;99.90
53294;DHT22;39181;53.440;5.644;2022-11-12T03:52:48;9.70;99.90
53294;DHT22;39181;53.440;5.644;2022-11-12T03:55:15;9.70;99.90
53294;DHT22;39181;53.440;5.644;2022-11-12T03:57:42;9.70;99.90
53294;DHT22;39181;53.440;5.644;2022-11-12T04:00:10;9.70;99.90
53294;DHT22;39181;53.440;5.644;2022-11-12T04:02:36;9.70;99.90
53294;DHT22;39181;53.440;5.644;2022-11-12T04:05:03;9.70;99.90
53294;DHT22;39181;53.440;5.644;2022-11-12T04:08:00;9.70;99.90
53294;DHT22;39181;53.440;5.644;2022-11-12T04:10:44;9.70;99.90
53294;DHT22;39181;53.440;5.644;2022-11-12T04:13:10;9.80;99.90
53294;DHT22;39181;53.440;5.644;2022-11-12T04:15:58;9.80;99.90
53294;DHT22;39181;53.440;5.644;2022-11-12T04:18:44;9.80;99.90
53294;DHT22;39181;53.440;5.644;2022-11-12T04:21:36;9.80;99.90
53294;DHT22;39181;53.440;5.644;2022-11-12T04:24:28;9.80;99.90
53294;DHT22;39181;53.440;5.644;2022-11-12T04:27:15;9.80;99.90
53294;DHT22;39181;53.440;5.644;2022-11-12T04:29:42;9.90;99.90
53294;DHT22;39181;53.440;5.644;2022-11-12T04:32:27;9.90;99.90
53294;DHT22;39181;53.440;5.644;2022-11-12T04:34:54;9.90;99.90
53294;DHT22;39181;53.440;5.644;2022-11-12T04:37:21;9.90;99.90
53294;DHT22;39181;53.440;5.644;2022-11-12T04:39:47;10.00;99.90
53294;DHT22;39181;53.440;5.644;2022-11-12T04:42:12;10.00;99.90
53294;DHT22;39181;53.440;5.644;2022-11-12T04:44:56;10.00;99.90
53294;DHT22;39181;53.440;5.644;2022-11-12T04:47:38;10.00;99.90
53294;DHT22;39181;53.440;5.644;2022-11-12T04:50:07;10.00;99.90
53294;DHT22;39181;53.440;5.644;2022-11-12T04:52:35;10.00;99.90
53294;DHT22;39181;53.440;5.644;2022-11-12T04:55:01;9.90;99.90
53294;DHT22;39181;53.440;5.644;2022-11-12T04:57:26;10.10;99.90
53294;DHT22;39181;53.440;5.644;2022-11-12T04:59:52;10.10;99.90
53294;DHT22;39181;53.440;5.644;2022-11-12T05:02:18;10.00;99.90
53294;DHT22;39181;53.440;5.644;2022-11-12T05:04:43;10.10;99.90
53294;DHT22;39181;53.440;5.644;2022-11-12T05:07:09;10.00;99.90
53294;DHT22;39181;53.440;5.644;2022-11-12T05:09:35;10.00;99.90
53294;DHT22;39181;53.440;5.644;2022-11-12T05:12:01;10.10;99.90
53294;DHT22;39181;53.440;5.644;2022-11-12T05:14:26;10.00;99.90
53294;DHT22;39181;53.440;5.644;2022-11-12T05:16:52;10.00;99.90
53294;DHT22;39181;53.440;5.644;2022-11-12T05:19:18;10.00;99.90
53294;DHT22;39181;53.440;5.644;2022-11-12T05:21:44;10.00;99.90
53294;DHT22;39181;53.440;5.644;2022-11-12T05:24:29;10.00;99.90
53294;DHT22;39181;53.440;5.644;2022-11-12T05:26:54;10.10;99.90
53294;DHT22;39181;53.440;5.644;2022-11-12T05:29:20;10.00;99.90
53294;DHT22;39181;53.440;5.644;2022-11-12T05:31:45;10.00;99.90
53294;DHT22;39181;53.440;5.644;2022-11-12T05:34:12;10.00;99.90
53294;DHT22;39181;53.440;5.644;2022-11-12T05:36:37;10.00;99.90
53294;DHT22;39181;53.440;5.644;2022-11-12T05:39:03;10.00;99.90
53294;DHT22;39181;53.440;5.644;2022-11-12T05:41:29;10.00;99.90
53294;DHT22;39181;53.440;5.644;2022-11-12T05:43:54;10.00;99.90
53294;DHT22;39181;53.440;5.644;2022-11-12T05:46:20;10.00;99.90
53294;DHT22;39181;53.440;5.644;2022-11-12T05:48:46;9.90;99.90
53294;DHT22;39181;53.440;5.644;2022-11-12T05:51:11;10.00;99.90
53294;DHT22;39181;53.440;5.644;2022-11-12T05:53:42;10.00;99.90
53294;DHT22;39181;53.440;5.644;2022-11-12T05:56:09;10.00;99.90
53294;DHT22;39181;53.440;5.644;2022-11-12T05:58:35;9.90;99.90
53294;DHT22;39181;53.440;5.644;2022-11-12T06:01:01;9.90;99.90
53294;DHT22;39181;53.440;5.644;2022-11-12T06:03:27;9.90;99.90
53294;DHT22;39181;53.440;5.644;2022-11-12T06:05:53;9.90;99.90
53294;DHT22;39181;53.440;5.644;2022-11-12T06:08:19;9.90;99.90
53294;DHT22;39181;53.440;5.644;2022-11-12T06:10:51;9.90;99.90
53294;DHT22;39181;53.440;5.644;2022-11-12T06:13:18;9.90;99.90
53294;DHT22;39181;53.440;5.644;2022-11-12T06:15:44;9.90;99.90
53294;DHT22;39181;53.440;5.644;2022-11-12T06:18:10;9.80;99.90
53294;DHT22;39181;53.440;5.644;2022-11-12T06:20:35;9.80;99.90
53294;DHT22;39181;53.440;5.644;2022-11-12T06:23:01;9.80;99.90
53294;DHT22;39181;53.440;5.644;2022-11-12T06:25:27;9.80;99.90
53294;DHT22;39181;53.440;5.644;2022-11-12T06:27:52;9.70;99.90
53294;DHT22;39181;53.440;5.644;2022-11-12T06:30:18;9.70;99.90
53294;DHT22;39181;53.440;5.644;2022-11-12T06:32:48;9.70;99.90
53294;DHT22;39181;53.440;5.644;2022-11-12T06:35:15;9.60;99.90
53294;DHT22;39181;53.440;5.644;2022-11-12T06:37:41;9.60;99.90
53294;DHT22;39181;53.440;5.644;2022-11-12T06:40:07;9.60;99.90
53294;DHT22;39181;53.440;5.644;2022-11-12T06:42:33;9.60;99.90
53294;DHT22;39181;53.440;5.644;2022-11-12T06:44:58;9.60;99.90
53294;DHT22;39181;53.440;5.644;2022-11-12T06:47:24;9.60;99.90
53294;DHT22;39181;53.440;5.644;2022-11-12T06:49:49;9.50;99.90
53294;DHT22;39181;53.440;5.644;2022-11-12T06:52:15;9.50;99.90
53294;DHT22;39181;53.440;5.644;2022-11-12T06:54:41;9.50;99.90
53294;DHT22;39181;53.440;5.644;2022-11-12T06:57:06;9.50;99.90
53294;DHT22;39181;53.440;5.644;2022-11-12T06:59:32;9.50;99.90
53294;DHT22;39181;53.440;5.644;2022-11-12T07:01:57;9.50;99.90
53294;DHT22;39181;53.440;5.644;2022-11-12T07:04:23;9.50;99.90
53294;DHT22;39181;53.440;5.644;2022-11-12T07:06:49;9.40;99.90
53294;DHT22;39181;53.440;5.644;2022-11-12T07:09:15;9.40;99.90
53294;DHT22;39181;53.440;5.644;2022-11-12T07:11:41;9.40;99.90
53294;DHT22;39181;53.440;5.644;2022-11-12T07:14:06;9.40;99.90
53294;DHT22;39181;53.440;5.644;2022-11-12T07:16:33;9.40;99.90
53294;DHT22;39181;53.440;5.644;2022-11-12T07:18:58;9.40;99.90
53294;DHT22;39181;53.440;5.644;2022-11-12T07:21:24;9.30;99.90
53294;DHT22;39181;53.440;5.644;2022-11-12T07:23:50;9.40;99.90
53294;DHT22;39181;53.440;5.644;2022-11-12T07:26:22;9.30;99.90
53294;DHT22;39181;53.440;5.644;2022-11-12T07:28:49;9.40;99.90
53294;DHT22;39181;53.440;5.644;2022-11-12T07:31:17;9.40;99.90
53294;DHT22;39181;53.440;5.644;2022-11-12T07:33:43;9.40;99.90
53294;DHT22;39181;53.440;5.644;2022-11-12T07:36:11;9.40;99.90
53294;DHT22;39181;53.440;5.644;2022-11-12T07:38:39;9.40;99.90
53294;DHT22;39181;53.440;5.644;2022-11-12T07:41:24;9.40;99.90
53294;DHT22;39181;53.440;5.644;2022-11-12T07:43:51;9.40;99.90
53294;DHT22;39181;53.440;5.644;2022-11-12T07:46:19;9.40;99.90
53294;DHT22;39181;53.440;5.644;2022-11-12T07:48:45;9.40;99.90
53294;DHT22;39181;53.440;5.644;2022-11-12T07:53:44;9.40;99.90
53294;DHT22;39181;53.440;5.644;2022-11-12T07:56:12;9.40;99.90
53294;DHT22;39181;53.440;5.644;2022-11-12T07:58:38;9.40;99.90
53294;DHT22;39181;53.440;5.644;2022-11-12T08:01:31;9.40;99.90
53294;DHT22;39181;53.440;5.644;2022-11-12T08:03:58;9.40;99.90
53294;DHT22;39181;53.440;5.644;2022-11-12T08:06:24;9.40;99.90
53294;DHT22;39181;53.440;5.644;2022-11-12T08:08:53;9.40;99.90
53294;DHT22;39181;53.440;5.644;2022-11-12T08:11:19;9.40;99.90
53294;DHT22;39181;53.440;5.644;2022-11-12T08:13:45;9.40;99.90
53294;DHT22;39181;53.440;5.644;2022-11-12T08:16:11;9.40;99.90
53294;DHT22;39181;53.440;5.644;2022-11-12T08:18:37;9.50;99.90
53294;DHT22;39181;53.440;5.644;2022-11-12T08:21:04;9.40;99.90
53294;DHT22;39181;53.440;5.644;2022-11-12T08:23:30;9.50;99.90
53294;DHT22;39181;53.440;5.644;2022-11-12T08:25:59;9.40;99.90
53294;DHT22;39181;53.440;5.644;2022-11-12T08:28:27;9.40;99.90
53294;DHT22;39181;53.440;5.644;2022-11-12T08:30:53;9.40;99.90
53294;DHT22;39181;53.440;5.644;2022-11-12T08:33:19;9.50;99.90
53294;DHT22;39181;53.440;5.644;2022-11-12T08:35:44;9.50;99.90
53294;DHT22;39181;53.440;5.644;2022-11-12T08:38:20;9.50;99.90
53294;DHT22;39181;53.440;5.644;2022-11-12T08:40:46;9.50;99.90
53294;DHT22;39181;53.440;5.644;2022-11-12T08:43:12;9.40;99.90
53294;DHT22;39181;53.440;5.644;2022-11-12T08:45:38;9.40;99.90
53294;DHT22;39181;53.440;5.644;2022-11-12T08:48:07;9.40;99.90
53294;DHT22;39181;53.440;5.644;2022-11-12T08:50:34;9.40;99.90
53294;DHT22;39181;53.440;5.644;2022-11-12T08:53:06;9.40;99.90
53294;DHT22;39181;53.440;5.644;2022-11-12T08:55:32;9.30;99.90
53294;DHT22;39181;53.440;5.644;2022-11-12T08:57:58;9.30;99.90
53294;DHT22;39181;53.440;5.644;2022-11-12T09:00:31;9.40;99.90
53294;DHT22;39181;53.440;5.644;2022-11-12T09:03:05;9.30;99.90
53294;DHT22;39181;53.440;5.644;2022-11-12T09:05:33;9.40;99.90
53294;DHT22;39181;53.440;5.644;2022-11-12T09:08:02;9.40;99.90
53294;DHT22;39181;53.440;5.644;2022-11-12T09:10:29;9.40;99.90
53294;DHT22;39181;53.440;5.644;2022-11-12T09:12:55;9.40;99.90
53294;DHT22;39181;53.440;5.644;2022-11-12T09:15:21;9.40;99.90
53294;DHT22;39181;53.440;5.644;2022-11-12T09:17:47;9.40;99.90
53294;DHT22;39181;53.440;5.644;2022-11-12T09:20:13;9.50;99.90
53294;DHT22;39181;53.440;5.644;2022-11-12T09:22:39;9.50;99.90
53294;DHT22;39181;53.440;5.644;2022-11-12T09:25:04;9.40;99.90
53294;DHT22;39181;53.440;5.644;2022-11-12T09:27:30;9.50;99.90
53294;DHT22;39181;53.440;5.644;2022-11-12T09:29:56;9.40;99.90
53294;DHT22;39181;53.440;5.644;2022-11-12T09:32:21;9.50;99.90
53294;DHT22;39181;53.440;5.644;2022-11-12T09:34:47;9.50;99.90
53294;DHT22;39181;53.440;5.644;2022-11-12T09:37:12;9.50;99.90
53294;DHT22;39181;53.440;5.644;2022-11-12T09:39:38;9.60;99.90
53294;DHT22;39181;53.440;5.644;2022-11-12T09:42:08;9.50;99.90
53294;DHT22;39181;53.440;5.644;2022-11-12T09:44:38;9.50;99.90
53294;DHT22;39181;53.440;5.644;2022-11-12T09:47:13;9.50;99.90
53294;DHT22;39181;53.440;5.644;2022-11-12T09:50:00;9.60;99.90
53294;DHT22;39181;53.440;5.644;2022-11-12T09:52:29;9.60;99.90
53294;DHT22;39181;53.440;5.644;2022-11-12T09:55:23;9.60;99.90
53294;DHT22;39181;53.440;5.644;2022-11-12T09:57:51;9.60;99.90
53294;DHT22;39181;53.440;5.644;2022-11-12T10:00:18;9.60;99.90
53294;DHT22;39181;53.440;5.644;2022-11-12T10:05:41;9.70;99.90
53294;DHT22;39181;53.440;5.644;2022-11-12T10:11:08;9.70;99.90
53294;DHT22;39181;53.440;5.644;2022-11-12T10:13:49;9.70;99.90
53294;DHT22;39181;53.440;5.644;2022-11-12T10:16:40;9.70;99.90
53294;DHT22;39181;53.440;5.644;2022-11-12T10:19:54;9.70;99.90
53294;DHT22;39181;53.440;5.644;2022-11-12T10:22:22;9.80;99.90
53294;DHT22;39181;53.440;5.644;2022-11-12T10:24:50;9.70;99.90
53294;DHT22;39181;53.440;5.644;2022-11-12T10:27:26;9.80;99.90
53294;DHT22;39181;53.440;5.644;2022-11-12T10:29:59;9.70;99.90
53294;DHT22;39181;53.440;5.644;2022-11-12T10:32:26;9.80;99.90
53294;DHT22;39181;53.440;5.644;2022-11-12T10:34:52;9.80;99.90
53294;DHT22;39181;53.440;5.644;2022-11-12T10:37:25;9.80;99.90
53294;DHT22;39181;53.440;5.644;2022-11-12T10:39:52;9.80;99.90
53294;DHT22;39181;53.440;5.644;2022-11-12T10:42:19;9.80;99.90
53294;DHT22;39181;53.440;5.644;2022-11-12T10:44:45;9.80;99.90
53294;DHT22;39181;53.440;5.644;2022-11-12T10:50:39;9.80;99.90
53294;DHT22;39181;53.440;5.644;2022-11-12T10:53:09;9.90;99.90
53294;DHT22;39181;53.440;5.644;2022-11-12T10:55:55;9.80;99.90
53294;DHT22;39181;53.440;5.644;2022-11-12T10:58:21;9.90;99.90
53294;DHT22;39181;53.440;5.644;2022-11-12T11:03:23;9.70;99.90
53294;DHT22;39181;53.440;5.644;2022-11-12T11:05:58;9.80;99.90
53294;DHT22;39181;53.440;5.644;2022-11-12T11:08:40;9.80;99.90
53294;DHT22;39181;53.440;5.644;2022-11-12T11:13:46;9.90;99.90
53294;DHT22;39181;53.440;5.644;2022-11-12T11:16:21;9.90;99.90
53294;DHT22;39181;53.440;5.644;2022-11-12T11:18:54;9.90;99.90
53294;DHT22;39181;53.440;5.644;2022-11-12T11:30:00;9.90;99.90
53294;DHT22;39181;53.440;5.644;2022-11-12T11:35:20;9.80;99.90
53294;DHT22;39181;53.440;5.644;2022-11-12T11:40:28;9.90;99.90
53294;DHT22;39181;53.440;5.644;2022-11-12T11:43:04;9.90;99.90
53294;DHT22;39181;53.440;5.644;2022-11-12T11:51:29;9.90;99.90
53294;DHT22;39181;53.440;5.644;2022-11-12T11:54:31;9.80;99.90
53294;DHT22;39181;53.440;5.644;2022-11-12T11:57:02;9.80;99.90
53294;DHT22;39181;53.440;5.644;2022-11-12T12:08:07;9.70;99.90
53294;DHT22;39181;53.440;5.644;2022-11-12T12:10:37;9.70;99.90
53294;DHT22;39181;53.440;5.644;2022-11-12T12:13:13;9.70;99.90
53294;DHT22;39181;53.440;5.644;2022-11-12T12:21:29;9.70;99.90
53294;DHT22;39181;53.440;5.644;2022-11-12T12:26:40;9.60;99.90
53294;DHT22;39181;53.440;5.644;2022-11-12T12:29:28;9.60;99.90
53294;DHT22;39181;53.440;5.644;2022-11-12T12:32:13;9.60;99.90
53294;DHT22;39181;53.440;5.644;2022-11-12T12:34:42;9.60;99.90
53294;DHT22;39181;53.440;5.644;2022-11-12T12:40:13;9.60;99.90
53294;DHT22;39181;53.440;5.644;2022-11-12T12:43:09;9.60;99.90
53294;DHT22;39181;53.440;5.644;2022-11-12T12:45:41;9.70;99.90
53294;DHT22;39181;53.440;5.644;2022-11-12T12:48:18;9.60;99.90
53294;DHT22;39181;53.440;5.644;2022-11-12T12:50:45;9.50;99.90
53294;DHT22;39181;53.440;5.644;2022-11-12T13:01:13;9.50;99.90
53294;DHT22;39181;53.440;5.644;2022-11-12T13:04:04;9.50;99.90
53294;DHT22;39181;53.440;5.644;2022-11-12T13:17:11;9.50;99.90
53294;DHT22;39181;53.440;5.644;2022-11-12T13:32:59;9.70;99.90
53294;DHT22;39181;53.440;5.644;2022-11-12T13:35:37;9.70;99.90
53294;DHT22;39181;53.440;5.644;2022-11-12T13:38:13;9.80;99.90
53294;DHT22;39181;53.440;5.644;2022-11-12T13:40:47;9.80;99.90
53294;DHT22;39181;53.440;5.644;2022-11-12T13:45:51;9.90;99.90
53294;DHT22;39181;53.440;5.644;2022-11-12T13:48:32;9.90;99.90
53294;DHT22;39181;53.440;5.644;2022-11-12T13:51:11;9.90;99.90
53294;DHT22;39181;53.440;5.644;2022-11-12T13:53:38;10.00;99.90
53294;DHT22;39181;53.440;5.644;2022-11-12T13:56:04;10.00;99.90
53294;DHT22;39181;53.440;5.644;2022-11-12T13:58:32;10.00;99.90
53294;DHT22;39181;53.440;5.644;2022-11-12T14:01:03;10.00;99.90
53294;DHT22;39181;53.440;5.644;2022-11-12T14:03:44;10.00;99.90
53294;DHT22;39181;53.440;5.644;2022-11-12T14:06:34;10.00;99.90
53294;DHT22;39181;53.440;5.644;2022-11-12T14:15:44;10.00;99.90
53294;DHT22;39181;53.440;5.644;2022-11-12T14:18:12;10.00;99.90
53294;DHT22;39181;53.440;5.644;2022-11-12T14:20:43;9.90;99.90
53294;DHT22;39181;53.440;5.644;2022-11-12T14:23:14;9.80;99.90
53294;DHT22;39181;53.440;5.644;2022-11-12T14:25:51;9.90;99.90
53294;DHT22;39181;53.440;5.644;2022-11-12T14:28:31;9.90;99.90
53294;DHT22;39181;53.440;5.644;2022-11-12T14:30:58;9.80;99.90
53294;DHT22;39181;53.440;5.644;2022-11-12T14:33:26;9.80;99.90
53294;DHT22;39181;53.440;5.644;2022-11-12T14:35:53;9.80;99.90
53294;DHT22;39181;53.440;5.644;2022-11-12T14:38:38;9.70;99.90
53294;DHT22;39181;53.440;5.644;2022-11-12T14:43:44;9.60;99.90
53294;DHT22;39181;53.440;5.644;2022-11-12T14:46:37;9.50;99.90
53294;DHT22;39181;53.440;5.644;2022-11-12T14:49:04;9.50;99.90
53294;DHT22;39181;53.440;5.644;2022-11-12T14:51:35;9.50;99.90
53294;DHT22;39181;53.440;5.644;2022-11-12T14:54:06;9.50;99.90
53294;DHT22;39181;53.440;5.644;2022-11-12T14:56:40;9.50;99.90
53294;DHT22;39181;53.440;5.644;2022-11-12T14:59:09;9.50;99.90
53294;DHT22;39181;53.440;5.644;2022-11-12T15:01:38;9.50;99.90
53294;DHT22;39181;53.440;5.644;2022-11-12T15:06:36;9.40;99.90
53294;DHT22;39181;53.440;5.644;2022-11-12T15:09:03;9.40;99.90
53294;DHT22;39181;53.440;5.644;2022-11-12T15:11:51;9.40;99.90
53294;DHT22;39181;53.440;5.644;2022-11-12T15:14:21;9.30;99.90
53294;DHT22;39181;53.440;5.644;2022-11-12T15:16:48;9.30;99.90
53294;DHT22;39181;53.440;5.644;2022-11-12T15:19:23;9.30;99.90
53294;DHT22;39181;53.440;5.644;2022-11-12T15:21:50;9.20;99.90
53294;DHT22;39181;53.440;5.644;2022-11-12T15:24:31;9.20;99.90
53294;DHT22;39181;53.440;5.644;2022-11-12T15:26:59;9.20;99.90
53294;DHT22;39181;53.440;5.644;2022-11-12T15:29:28;9.20;99.90
53294;DHT22;39181;53.440;5.644;2022-11-12T15:31:59;9.20;99.90
53294;DHT22;39181;53.440;5.644;2022-11-12T15:34:30;9.20;99.90
53294;DHT22;39181;53.440;5.644;2022-11-12T15:36:57;9.20;99.90
53294;DHT22;39181;53.440;5.644;2022-11-12T15:39:26;9.20;99.90
53294;DHT22;39181;53.440;5.644;2022-11-12T15:42:00;9.30;99.90
53294;DHT22;39181;53.440;5.644;2022-11-12T15:44:31;9.30;99.90
53294;DHT22;39181;53.440;5.644;2022-11-12T15:46:57;9.20;99.90
53294;DHT22;39181;53.440;5.644;2022-11-12T15:49:23;9.20;99.90
53294;DHT22;39181;53.440;5.644;2022-11-12T15:51:49;9.20;99.90
53294;DHT22;39181;53.440;5.644;2022-11-12T15:54:14;9.20;99.90
53294;DHT22;39181;53.440;5.644;2022-11-12T15:56:40;9.20;99.90
53294;DHT22;39181;53.440;5.644;2022-11-12T15:59:05;9.20;99.90
53294;DHT22;39181;53.440;5.644;2022-11-12T16:01:31;9.10;99.90
53294;DHT22;39181;53.440;5.644;2022-11-12T16:03:57;9.00;99.90
53294;DHT22;39181;53.440;5.644;2022-11-12T16:06:22;9.10;99.90
53294;DHT22;39181;53.440;5.644;2022-11-12T16:08:48;9.00;99.90
53294;DHT22;39181;53.440;5.644;2022-11-12T16:11:13;9.00;99.90
53294;DHT22;39181;53.440;5.644;2022-11-12T16:14:12;9.00;99.90
53294;DHT22;39181;53.440;5.644;2022-11-12T16:16:38;8.90;99.90
53294;DHT22;39181;53.440;5.644;2022-11-12T16:19:13;8.90;99.90
53294;DHT22;39181;53.440;5.644;2022-11-12T16:21:39;8.90;99.90
53294;DHT22;39181;53.440;5.644;2022-11-12T16:24:06;8.80;99.90
53294;DHT22;39181;53.440;5.644;2022-11-12T16:26:31;8.80;99.90
53294;DHT22;39181;53.440;5.644;2022-11-12T16:28:58;8.70;99.90
53294;DHT22;39181;53.440;5.644;2022-11-12T16:31:25;8.70;99.90
53294;DHT22;39181;53.440;5.644;2022-11-12T16:33:51;8.60;99.90
53294;DHT22;39181;53.440;5.644;2022-11-12T16:36:16;8.60;99.90
53294;DHT22;39181;53.440;5.644;2022-11-12T16:38:43;8.60;99.90
53294;DHT22;39181;53.440;5.644;2022-11-12T16:41:10;8.60;99.90
53294;DHT22;39181;53.440;5.644;2022-11-12T16:43:37;8.50;99.90
53294;DHT22;39181;53.440;5.644;2022-11-12T16:46:11;8.50;99.90
53294;DHT22;39181;53.440;5.644;2022-11-12T16:48:37;8.40;99.90
53294;DHT22;39181;53.440;5.644;2022-11-12T16:51:03;8.50;99.90
53294;DHT22;39181;53.440;5.644;2022-11-12T16:53:29;8.50;99.90
53294;DHT22;39181;53.440;5.644;2022-11-12T16:55:56;8.40;99.90
53294;DHT22;39181;53.440;5.644;2022-11-12T16:58:21;8.50;99.90
53294;DHT22;39181;53.440;5.644;2022-11-12T17:00:47;8.40;99.90
53294;DHT22;39181;53.440;5.644;2022-11-12T17:03:14;8.40;99.90
53294;DHT22;39181;53.440;5.644;2022-11-12T17:05:40;8.40;99.90
53294;DHT22;39181;53.440;5.644;2022-11-12T17:08:07;8.40;99.90
53294;DHT22;39181;53.440;5.644;2022-11-12T17:10:33;8.30;99.90
53294;DHT22;39181;53.440;5.644;2022-11-12T17:12:59;8.30;99.90
53294;DHT22;39181;53.440;5.644;2022-11-12T17:15:24;8.30;99.90
53294;DHT22;39181;53.440;5.644;2022-11-12T17:17:52;8.30;99.90
53294;DHT22;39181;53.440;5.644;2022-11-12T17:20:18;8.20;99.90
53294;DHT22;39181;53.440;5.644;2022-11-12T17:22:44;8.20;99.90
53294;DHT22;39181;53.440;5.644;2022-11-12T17:25:09;8.20;99.90
53294;DHT22;39181;53.440;5.644;2022-11-12T17:27:35;8.20;99.90
53294;DHT22;39181;53.440;5.644;2022-11-12T17:30:01;8.20;99.90
53294;DHT22;39181;53.440;5.644;2022-11-12T17:32:27;8.20;99.90
53294;DHT22;39181;53.440;5.644;2022-11-12T17:34:52;8.10;99.90
53294;DHT22;39181;53.440;5.644;2022-11-12T17:37:18;8.10;99.90
53294;DHT22;39181;53.440;5.644;2022-11-12T17:39:44;8.10;99.90